createdAt,value
2023-05-02T00:00:09.916Z,32.59
2023-05-02T00:01:09.895Z,32.58
2023-05-02T00:02:10.529Z,32.57
2023-05-02T00:03:09.964Z,32.56
2023-05-02T00:04:10.051Z,32.59
2023-05-02T00:05:09.893Z,32.55
2023-05-02T00:06:10.106Z,32.62
2023-05-02T00:07:09.899Z,32.62
2023-05-02T00:08:09.922Z,32.59
2023-05-02T00:09:09.883Z,32.60
2023-05-02T00:10:09.874Z,32.64
2023-05-02T00:11:09.916Z,32.61
2023-05-02T00:12:09.911Z,32.60
2023-05-02T00:13:09.901Z,32.59
2023-05-02T00:14:09.913Z,32.64
2023-05-02T00:15:09.922Z,32.60
2023-05-02T00:16:09.921Z,32.56
2023-05-02T00:17:09.941Z,32.60
2023-05-02T00:18:10.023Z,32.59
2023-05-02T00:19:09.922Z,32.59
2023-05-02T00:20:09.913Z,32.56
2023-05-02T00:21:09.936Z,32.62
2023-05-02T00:22:09.919Z,32.60
2023-05-02T00:23:09.904Z,32.60
2023-05-02T00:24:09.917Z,32.59
2023-05-02T00:25:09.925Z,32.59
2023-05-02T00:26:10.042Z,32.60
2023-05-02T00:27:09.870Z,32.62
2023-05-02T00:28:09.905Z,32.60
2023-05-02T00:29:09.893Z,32.60
2023-05-02T00:30:09.916Z,32.59
2023-05-02T00:31:10.141Z,32.59
2023-05-02T00:32:09.874Z,32.61
2023-05-02T00:33:09.912Z,32.62
2023-05-02T00:34:09.885Z,32.64
2023-05-02T00:35:09.888Z,32.62
2023-05-02T00:36:09.894Z,32.60
2023-05-02T00:37:09.885Z,32.56
2023-05-02T00:38:09.886Z,32.64
2023-05-02T00:39:09.903Z,32.57
2023-05-02T00:40:09.876Z,32.60
2023-05-02T00:41:10.028Z,32.60
2023-05-02T00:42:09.910Z,32.64
2023-05-02T00:43:09.879Z,32.63
2023-05-02T00:44:09.882Z,32.57
2023-05-02T00:45:09.908Z,32.61
2023-05-02T00:46:10.107Z,32.60
2023-05-02T00:47:09.903Z,32.60
2023-05-02T00:48:09.944Z,32.60
2023-05-02T00:49:09.893Z,32.60
2023-05-02T00:50:09.902Z,32.59
2023-05-02T00:51:10.031Z,32.60
2023-05-02T00:52:09.904Z,32.63
2023-05-02T00:53:09.871Z,32.64
2023-05-02T00:54:09.886Z,32.65
2023-05-02T00:55:09.889Z,32.59
2023-05-02T00:56:10.073Z,32.64
2023-05-02T00:57:09.899Z,32.59
2023-05-02T00:58:09.907Z,32.65
2023-05-02T00:59:09.904Z,32.57
2023-05-02T01:00:09.903Z,32.64
2023-05-02T01:01:09.997Z,32.63
2023-05-02T01:02:10.055Z,32.64
2023-05-02T01:03:09.975Z,32.64
2023-05-02T01:04:10.027Z,32.61
2023-05-02T01:05:09.911Z,32.63
2023-05-02T01:06:10.147Z,32.59
2023-05-02T01:07:09.886Z,32.60
2023-05-02T01:08:09.911Z,32.63
2023-05-02T01:09:09.977Z,32.61
2023-05-02T01:10:09.921Z,32.59
2023-05-02T01:11:10.062Z,32.57
2023-05-02T01:12:09.934Z,32.60
2023-05-02T01:13:09.898Z,32.64
2023-05-02T01:14:09.911Z,32.62
2023-05-02T01:15:09.931Z,32.63
2023-05-02T01:16:10.097Z,32.62
2023-05-02T01:17:09.937Z,32.59
2023-05-02T01:18:09.983Z,32.67
2023-05-02T01:19:09.939Z,32.65
2023-05-02T01:20:10.031Z,32.64
2023-05-02T01:21:10.112Z,32.64
2023-05-02T01:22:09.950Z,32.63
2023-05-02T01:23:09.969Z,32.61
2023-05-02T01:24:09.965Z,32.64
2023-05-02T01:25:09.975Z,32.63
2023-05-02T01:26:10.055Z,32.61
2023-05-02T01:27:09.988Z,32.65
2023-05-02T01:28:09.993Z,32.64
2023-05-02T01:29:09.944Z,32.65
2023-05-02T01:30:09.977Z,32.68
2023-05-02T01:31:10.106Z,32.64
2023-05-02T01:32:10.018Z,32.64
2023-05-02T01:33:10.046Z,32.57
2023-05-02T01:34:10.016Z,32.65
2023-05-02T01:35:09.998Z,32.64
2023-05-02T01:36:10.038Z,32.60
2023-05-02T01:37:10.026Z,32.63
2023-05-02T01:38:10.012Z,32.61
2023-05-02T01:39:10.043Z,32.62
2023-05-02T01:40:10.016Z,32.64
2023-05-02T01:41:10.084Z,32.65
2023-05-02T01:42:10.040Z,32.64
2023-05-02T01:43:10.033Z,32.65
2023-05-02T01:44:10.045Z,32.59
2023-05-02T01:45:10.043Z,32.62
2023-05-02T01:46:10.080Z,32.64
2023-05-02T01:47:10.270Z,32.61
2023-05-02T01:48:10.157Z,32.64
2023-05-02T01:49:10.083Z,32.58
2023-05-02T01:50:10.080Z,32.62
2023-05-02T01:51:10.100Z,32.64
2023-05-02T01:52:10.207Z,32.64
2023-05-02T01:53:10.075Z,32.64
2023-05-02T01:54:10.067Z,32.65
2023-05-02T01:55:10.141Z,32.64
2023-05-02T01:56:10.605Z,32.65
2023-05-02T01:57:10.109Z,32.64
2023-05-02T01:58:10.122Z,32.67
2023-05-02T01:59:10.146Z,32.70
2023-05-02T02:00:10.076Z,32.67
2023-05-02T02:01:10.124Z,32.62
2023-05-02T02:02:10.100Z,32.65
2023-05-02T02:03:10.147Z,32.64
2023-05-02T02:04:10.131Z,32.61
2023-05-02T02:05:10.113Z,32.67
2023-05-02T02:06:10.623Z,32.64
2023-05-02T02:07:10.088Z,32.64
2023-05-02T02:08:10.094Z,32.64
2023-05-02T02:09:10.109Z,32.64
2023-05-02T02:10:10.135Z,32.61
2023-05-02T02:11:10.111Z,32.69
2023-05-02T02:12:10.123Z,32.66
2023-05-02T02:13:10.138Z,32.61
2023-05-02T02:14:10.148Z,32.65
2023-05-02T02:15:10.125Z,32.59
2023-05-02T02:16:10.148Z,32.66
2023-05-02T02:17:10.174Z,32.69
2023-05-02T02:18:10.210Z,32.62
2023-05-02T02:19:10.146Z,32.67
2023-05-02T02:20:10.192Z,32.64
2023-05-02T02:21:10.652Z,32.68
2023-05-02T02:22:10.149Z,32.59
2023-05-02T02:23:10.211Z,32.62
2023-05-02T02:24:10.231Z,32.62
2023-05-02T02:25:10.189Z,32.68
2023-05-02T02:26:10.589Z,32.63
2023-05-02T02:27:10.201Z,32.65
2023-05-02T02:28:10.255Z,32.64
2023-05-02T02:29:10.217Z,32.64
2023-05-02T02:30:10.234Z,32.59
2023-05-02T02:31:10.260Z,32.66
2023-05-02T02:32:10.213Z,32.58
2023-05-02T02:33:10.233Z,32.68
2023-05-02T02:34:10.283Z,32.61
2023-05-02T02:35:10.285Z,32.69
2023-05-02T02:36:10.294Z,32.65
2023-05-02T02:37:10.292Z,32.65
2023-05-02T02:38:10.264Z,32.62
2023-05-02T02:39:10.278Z,32.66
2023-05-02T02:40:10.267Z,32.65
2023-05-02T02:41:10.634Z,32.66
2023-05-02T02:42:10.291Z,32.61
2023-05-02T02:43:10.334Z,32.68
2023-05-02T02:44:12.204Z,32.63
2023-05-02T02:45:10.316Z,32.62
2023-05-02T02:46:10.354Z,32.65
2023-05-02T02:47:10.318Z,32.63
2023-05-02T02:48:10.295Z,32.61
2023-05-02T02:49:10.268Z,32.65
2023-05-02T02:50:10.279Z,32.60
2023-05-02T02:51:10.302Z,32.59
2023-05-02T02:52:10.302Z,32.59
2023-05-02T02:53:10.256Z,32.68
2023-05-02T02:54:25.482Z,32.68
2023-05-02T02:55:11.214Z,32.61
2023-05-02T02:56:10.736Z,32.63
2023-05-02T02:57:10.234Z,32.62
2023-05-02T02:58:10.205Z,32.64
2023-05-02T02:59:10.189Z,32.70
2023-05-02T03:00:10.205Z,32.64
2023-05-02T03:01:10.243Z,32.64
2023-05-02T03:02:10.424Z,32.66
2023-05-02T03:03:10.213Z,32.61
2023-05-02T03:04:10.165Z,32.65
2023-05-02T03:05:10.176Z,32.67
2023-05-02T03:06:10.221Z,32.64
2023-05-02T03:07:10.134Z,32.66
2023-05-02T03:08:10.152Z,32.68
2023-05-02T03:09:10.156Z,32.63
2023-05-02T03:10:10.118Z,32.64
2023-05-02T03:11:10.117Z,32.67
2023-05-02T03:12:10.115Z,32.69
2023-05-02T03:13:10.124Z,32.67
2023-05-02T03:14:10.085Z,32.66
2023-05-02T03:15:10.049Z,32.70
2023-05-02T03:16:10.156Z,32.62
2023-05-02T03:17:10.108Z,32.68
2023-05-02T03:18:10.079Z,32.70
2023-05-02T03:19:10.038Z,32.70
2023-05-02T03:20:10.081Z,32.68
2023-05-02T03:21:10.046Z,32.66
2023-05-02T03:22:10.140Z,32.69
2023-05-02T03:23:10.003Z,32.67
2023-05-02T03:24:10.015Z,32.73
2023-05-02T03:25:10.547Z,32.70
2023-05-02T03:26:10.029Z,32.70
2023-05-02T03:27:10.109Z,32.70
2023-05-02T03:28:10.028Z,32.67
2023-05-02T03:29:09.951Z,32.70
2023-05-02T03:30:09.967Z,32.70
2023-05-02T03:31:10.087Z,32.73
2023-05-02T03:32:10.068Z,32.71
2023-05-02T03:33:10.113Z,32.70
2023-05-02T03:34:10.011Z,32.70
2023-05-02T03:35:10.039Z,32.74
2023-05-02T03:36:10.034Z,32.73
2023-05-02T03:37:10.042Z,32.76
2023-05-02T03:38:10.050Z,32.77
2023-05-02T03:39:10.055Z,32.74
2023-05-02T03:40:10.040Z,32.74
2023-05-02T03:41:10.069Z,32.77
2023-05-02T03:42:10.018Z,32.77
2023-05-02T03:43:10.024Z,32.74
2023-05-02T03:44:10.096Z,32.77
2023-05-02T03:45:10.036Z,32.75
2023-05-02T03:46:10.032Z,32.80
2023-05-02T03:47:10.146Z,32.77
2023-05-02T03:48:10.142Z,32.81
2023-05-02T03:49:10.072Z,32.73
2023-05-02T03:50:10.103Z,32.81
2023-05-02T03:51:10.162Z,32.78
2023-05-02T03:52:10.149Z,32.80
2023-05-02T03:53:10.147Z,32.81
2023-05-02T03:54:10.108Z,32.81
2023-05-02T03:55:10.175Z,32.80
2023-05-02T03:56:10.174Z,32.85
2023-05-02T03:57:10.620Z,32.82
2023-05-02T03:58:10.211Z,32.81
2023-05-02T03:59:10.183Z,32.87
2023-05-02T04:00:10.165Z,32.85
2023-05-02T04:01:10.175Z,32.82
2023-05-02T04:02:10.254Z,32.85
2023-05-02T04:03:10.229Z,32.82
2023-05-02T04:04:10.287Z,32.85
2023-05-02T04:05:10.230Z,32.89
2023-05-02T04:06:10.236Z,32.88
2023-05-02T04:07:10.221Z,32.83
2023-05-02T04:08:10.256Z,32.88
2023-05-02T04:09:10.258Z,32.88
2023-05-02T04:10:10.273Z,32.87
2023-05-02T04:11:10.261Z,32.87
2023-05-02T04:12:10.293Z,32.84
2023-05-02T04:13:10.268Z,32.89
2023-05-02T04:14:10.365Z,32.92
2023-05-02T04:15:10.294Z,32.87
2023-05-02T04:16:10.397Z,32.92
2023-05-02T04:17:10.447Z,32.88
2023-05-02T04:18:10.393Z,32.89
2023-05-02T04:19:10.475Z,32.88
2023-05-02T04:20:10.374Z,32.92
2023-05-02T04:21:10.393Z,32.92
2023-05-02T04:22:10.653Z,32.93
2023-05-02T04:23:10.364Z,32.94
2023-05-02T04:24:10.466Z,32.94
2023-05-02T04:25:10.434Z,32.96
2023-05-02T04:26:10.402Z,32.95
2023-05-02T04:27:11.951Z,32.92
2023-05-02T04:28:10.591Z,32.95
2023-05-02T04:29:10.580Z,32.95
2023-05-02T04:30:10.614Z,32.92
2023-05-02T04:31:10.702Z,32.91
2023-05-02T04:32:10.650Z,32.92
2023-05-02T04:33:10.625Z,32.97
2023-05-02T04:34:10.627Z,32.96
2023-05-02T04:35:10.643Z,32.96
2023-05-02T04:36:10.651Z,32.99
2023-05-02T04:37:10.687Z,32.94
2023-05-02T04:38:10.699Z,32.96
2023-05-02T04:39:10.681Z,32.92
2023-05-02T04:40:10.647Z,32.92
2023-05-02T04:41:10.689Z,32.94
2023-05-02T04:42:10.745Z,32.94
2023-05-02T04:43:10.735Z,32.91
2023-05-02T04:44:10.735Z,32.99
2023-05-02T04:45:10.715Z,32.97
2023-05-02T04:46:10.814Z,32.97
2023-05-02T04:47:10.792Z,32.99
2023-05-02T04:48:10.834Z,33.00
2023-05-02T04:49:11.624Z,32.95
2023-05-02T04:50:10.806Z,33.03
2023-05-02T04:51:10.832Z,33.02
2023-05-02T04:52:10.842Z,33.01
2023-05-02T04:53:10.837Z,32.97
2023-05-02T04:54:10.851Z,33.02
2023-05-02T04:55:10.880Z,32.96
2023-05-02T04:56:10.889Z,33.00
2023-05-02T04:57:10.935Z,33.00
2023-05-02T04:58:10.915Z,33.00
2023-05-02T04:59:10.927Z,32.99
2023-05-02T05:00:10.950Z,32.99
2023-05-02T05:01:11.037Z,33.00
2023-05-02T05:02:11.105Z,32.98
2023-05-02T05:03:11.118Z,33.04
2023-05-02T05:04:11.194Z,33.00
2023-05-02T05:05:11.054Z,32.97
2023-05-02T05:06:11.098Z,32.99
2023-05-02T05:07:11.075Z,32.99
2023-05-02T05:08:11.079Z,32.98
2023-05-02T05:09:11.109Z,32.99
2023-05-02T05:10:11.134Z,33.00
2023-05-02T05:11:11.133Z,33.00
2023-05-02T05:12:11.144Z,33.01
2023-05-02T05:13:11.197Z,32.98
2023-05-02T05:14:11.179Z,32.99
2023-05-02T05:15:11.196Z,33.00
2023-05-02T05:16:11.257Z,32.97
2023-05-02T05:17:11.232Z,32.97
2023-05-02T05:18:11.313Z,32.91
2023-05-02T05:19:11.254Z,32.98
2023-05-02T05:20:11.306Z,32.99
2023-05-02T05:21:11.312Z,32.96
2023-05-02T05:22:11.300Z,32.96
2023-05-02T05:23:11.321Z,32.96
2023-05-02T05:24:11.328Z,33.00
2023-05-02T05:25:11.342Z,32.97
2023-05-02T05:26:11.387Z,32.96
2023-05-02T05:27:11.405Z,32.97
2023-05-02T05:28:11.370Z,33.00
2023-05-02T05:29:11.436Z,33.01
2023-05-02T05:30:11.442Z,33.01
2023-05-02T05:31:11.465Z,33.04
2023-05-02T05:32:11.538Z,33.01
2023-05-02T05:33:11.552Z,32.98
2023-05-02T05:34:11.544Z,33.02
2023-05-02T05:35:11.553Z,33.00
2023-05-02T05:36:11.552Z,32.96
2023-05-02T05:37:11.554Z,32.98
2023-05-02T05:38:11.525Z,33.02
2023-05-02T05:39:11.568Z,33.00
2023-05-02T05:40:11.582Z,32.97
2023-05-02T05:41:11.585Z,32.98
2023-05-02T05:42:11.585Z,33.00
2023-05-02T05:43:11.595Z,32.97
2023-05-02T05:44:11.596Z,32.96
2023-05-02T05:45:11.647Z,32.97
2023-05-02T05:46:11.603Z,32.97
2023-05-02T05:47:11.710Z,32.94
2023-05-02T05:48:11.784Z,33.01
2023-05-02T05:49:11.693Z,32.94
2023-05-02T05:50:11.725Z,32.97
2023-05-02T05:51:11.713Z,33.01
2023-05-02T05:52:11.747Z,33.00
2023-05-02T05:53:11.736Z,33.05
2023-05-02T05:54:11.748Z,33.08
2023-05-02T05:55:11.774Z,33.07
2023-05-02T05:56:11.787Z,33.09
2023-05-02T05:57:11.813Z,33.11
2023-05-02T05:58:11.800Z,33.04
2023-05-02T05:59:11.814Z,33.14
2023-05-02T06:00:11.901Z,33.11
2023-05-02T06:01:11.868Z,33.14
2023-05-02T06:02:11.914Z,33.11
2023-05-02T06:03:11.895Z,33.07
2023-05-02T06:04:12.000Z,33.08
2023-05-02T06:05:11.930Z,33.14
2023-05-02T06:06:11.925Z,33.13
2023-05-02T06:07:11.919Z,33.17
2023-05-02T06:08:11.885Z,33.20
2023-05-02T06:09:11.868Z,33.27
2023-05-02T06:10:11.902Z,33.37
2023-05-02T06:11:11.885Z,33.36
2023-05-02T06:12:11.888Z,33.37
2023-05-02T06:13:11.900Z,33.65
2023-05-02T06:14:11.909Z,33.74
2023-05-02T06:15:11.913Z,33.82
2023-05-02T06:16:11.907Z,33.77
2023-05-02T06:17:11.937Z,34.71
2023-05-02T06:18:11.957Z,34.00
2023-05-02T06:19:11.906Z,33.95
2023-05-02T06:20:11.945Z,34.11
2023-05-02T06:21:11.908Z,35.41
2023-05-02T06:22:12.218Z,34.38
2023-05-02T06:23:11.981Z,34.14
2023-05-02T06:24:12.064Z,34.35
2023-05-02T06:25:11.986Z,34.41
2023-05-02T06:26:11.980Z,34.39
2023-05-02T06:27:12.197Z,34.84
2023-05-02T06:28:12.004Z,34.76
2023-05-02T06:29:12.011Z,34.51
2023-05-02T06:30:12.025Z,34.95
2023-05-02T06:31:12.065Z,34.74
2023-05-02T06:32:12.088Z,34.46
2023-05-02T06:33:12.201Z,34.77
2023-05-02T06:34:12.155Z,35.02
2023-05-02T06:35:12.182Z,34.99
2023-05-02T06:36:12.225Z,35.06
2023-05-02T06:37:12.258Z,35.15
2023-05-02T06:38:12.730Z,35.35
2023-05-02T06:39:12.398Z,35.09
2023-05-02T06:40:12.442Z,35.00
2023-05-02T06:41:12.495Z,35.25
2023-05-02T06:42:12.560Z,35.25
2023-05-02T06:43:12.616Z,34.80
2023-05-02T06:44:12.682Z,35.16
2023-05-02T06:45:12.721Z,35.63
2023-05-02T06:46:12.784Z,35.50
2023-05-02T06:47:12.945Z,35.49
2023-05-02T06:48:12.947Z,35.58
2023-05-02T06:49:12.984Z,36.26
2023-05-02T06:50:13.005Z,35.58
2023-05-02T06:51:13.050Z,35.71
2023-05-02T06:52:13.684Z,35.56
2023-05-02T06:53:13.136Z,36.39
2023-05-02T06:54:13.168Z,36.19
2023-05-02T06:55:13.195Z,36.15
2023-05-02T06:56:13.348Z,35.69
2023-05-02T06:57:13.317Z,36.65
2023-05-02T06:58:13.348Z,35.95
2023-05-02T06:59:13.445Z,36.22
2023-05-02T07:00:13.453Z,35.85
2023-05-02T07:01:13.550Z,35.73
2023-05-02T07:02:13.525Z,36.39
2023-05-02T07:03:13.661Z,36.48
2023-05-02T07:04:13.667Z,36.31
2023-05-02T07:05:13.704Z,36.60
2023-05-02T07:06:13.780Z,36.12
2023-05-02T07:07:13.763Z,36.60
2023-05-02T07:08:13.822Z,36.65
2023-05-02T07:09:13.844Z,36.48
2023-05-02T07:10:13.846Z,36.48
2023-05-02T07:11:13.887Z,36.74
2023-05-02T07:12:13.940Z,36.81
2023-05-02T07:13:13.981Z,37.19
2023-05-02T07:14:14.001Z,37.06
2023-05-02T07:15:14.003Z,37.17
2023-05-02T07:16:14.086Z,37.82
2023-05-02T07:17:14.118Z,37.61
2023-05-02T07:18:14.292Z,37.13
2023-05-02T07:19:14.179Z,37.83
2023-05-02T07:20:14.143Z,37.68
2023-05-02T07:21:14.195Z,37.17
2023-05-02T07:22:14.226Z,37.54
2023-05-02T07:23:14.298Z,37.30
2023-05-02T07:24:14.307Z,37.49
2023-05-02T07:25:14.374Z,38.23
2023-05-02T07:26:14.401Z,37.88
2023-05-02T07:27:14.489Z,38.61
2023-05-02T07:28:14.545Z,38.66
2023-05-02T07:29:14.634Z,38.73
2023-05-02T07:30:14.612Z,39.23
2023-05-02T07:31:14.732Z,39.08
2023-05-02T07:32:14.701Z,39.56
2023-05-02T07:33:14.700Z,39.48
2023-05-02T07:34:14.630Z,38.72
2023-05-02T07:35:14.619Z,38.13
2023-05-02T07:36:14.632Z,38.13
2023-05-02T07:37:14.657Z,37.64
2023-05-02T07:38:14.664Z,37.28
2023-05-02T07:39:14.670Z,37.64
2023-05-02T07:40:14.674Z,37.63
2023-05-02T07:41:14.772Z,37.48
2023-05-02T07:42:14.681Z,37.52
2023-05-02T07:43:14.679Z,36.92
2023-05-02T07:44:14.756Z,37.05
2023-05-02T07:45:14.729Z,37.22
2023-05-02T07:46:14.889Z,36.74
2023-05-02T07:47:14.721Z,37.10
2023-05-02T07:48:14.762Z,36.92
2023-05-02T07:49:14.805Z,37.01
2023-05-02T07:50:14.880Z,37.17
2023-05-02T07:51:15.802Z,37.19
2023-05-02T07:52:14.784Z,37.06
2023-05-02T07:53:14.789Z,37.07
2023-05-02T07:54:14.801Z,37.18
2023-05-02T07:55:14.774Z,37.18
2023-05-02T07:56:14.773Z,37.22
2023-05-02T07:57:14.756Z,37.33
2023-05-02T07:58:14.761Z,37.40
2023-05-02T07:59:14.744Z,37.32
2023-05-02T08:00:14.727Z,37.20
2023-05-02T08:01:14.739Z,37.61
2023-05-02T08:02:14.740Z,37.73
2023-05-02T08:03:14.951Z,37.91
2023-05-02T08:04:15.032Z,38.21
2023-05-02T08:05:14.858Z,38.19
2023-05-02T08:06:14.757Z,38.26
2023-05-02T08:07:14.688Z,38.17
2023-05-02T08:08:14.737Z,38.38
2023-05-02T08:09:14.806Z,38.34
2023-05-02T08:10:14.822Z,37.87
2023-05-02T08:11:14.881Z,37.35
2023-05-02T08:12:14.871Z,37.20
2023-05-02T08:13:14.958Z,37.07
2023-05-02T08:14:14.934Z,37.03
2023-05-02T08:15:14.987Z,37.42
2023-05-02T08:16:14.965Z,37.46
2023-05-02T08:17:14.975Z,37.51
2023-05-02T08:18:15.101Z,37.93
2023-05-02T08:19:14.987Z,37.58
2023-05-02T08:20:14.993Z,37.70
2023-05-02T08:21:14.993Z,37.65
2023-05-02T08:22:14.970Z,37.25
2023-05-02T08:23:15.020Z,37.78
2023-05-02T08:24:15.029Z,38.12
2023-05-02T08:25:14.956Z,38.16
2023-05-02T08:26:14.974Z,37.79
2023-05-02T08:27:15.017Z,37.98
2023-05-02T08:28:15.030Z,37.65
2023-05-02T08:29:15.074Z,37.82
2023-05-02T08:30:15.066Z,37.97
2023-05-02T08:31:15.191Z,37.63
2023-05-02T08:32:15.194Z,37.34
2023-05-02T08:33:15.388Z,37.62
2023-05-02T08:34:15.294Z,37.69
2023-05-02T08:35:15.336Z,37.73
2023-05-02T08:36:15.430Z,37.84
2023-05-02T08:37:15.460Z,37.40
2023-05-02T08:38:15.548Z,37.62
2023-05-02T08:39:15.588Z,37.87
2023-05-02T08:40:16.028Z,37.68
2023-05-02T08:41:15.688Z,37.75
2023-05-02T08:42:15.724Z,37.32
2023-05-02T08:43:16.287Z,37.43
2023-05-02T08:44:15.878Z,37.38
2023-05-02T08:45:16.748Z,37.41
2023-05-02T08:46:16.160Z,37.30
2023-05-02T08:47:16.100Z,37.29
2023-05-02T08:48:16.107Z,37.24
2023-05-02T08:49:16.154Z,37.21
2023-05-02T08:50:16.198Z,37.22
2023-05-02T08:51:16.246Z,37.23
2023-05-02T08:52:16.312Z,37.18
2023-05-02T08:53:16.379Z,37.14
2023-05-02T08:54:16.423Z,37.14
2023-05-02T08:55:16.519Z,37.08
2023-05-02T08:56:16.553Z,37.11
2023-05-02T08:57:16.664Z,37.13
2023-05-02T08:58:17.758Z,37.18
2023-05-02T08:59:16.728Z,37.16
2023-05-02T09:00:16.788Z,37.18
2023-05-02T09:01:16.841Z,37.16
2023-05-02T09:02:16.898Z,37.50
2023-05-02T09:03:16.974Z,37.43
2023-05-02T09:04:17.066Z,37.38
2023-05-02T09:05:17.120Z,37.43
2023-05-02T09:06:17.208Z,37.89
2023-05-02T09:07:17.203Z,37.93
2023-05-02T09:08:17.313Z,37.84
2023-05-02T09:09:19.085Z,37.87
2023-05-02T09:10:17.351Z,37.77
2023-05-02T09:11:17.437Z,38.04
2023-05-02T09:12:17.479Z,37.98
2023-05-02T09:13:17.553Z,38.12
2023-05-02T09:14:17.604Z,38.18
2023-05-02T09:15:20.543Z,38.48
2023-05-02T09:16:17.668Z,38.42
2023-05-02T09:17:17.639Z,38.39
2023-05-02T09:18:17.622Z,38.76
2023-05-02T09:19:17.595Z,38.81
2023-05-02T09:20:17.590Z,38.56
2023-05-02T09:21:20.477Z,38.48
2023-05-02T09:22:17.565Z,38.56
2023-05-02T09:23:17.570Z,38.60
2023-05-02T09:24:17.540Z,38.59
2023-05-02T09:25:17.565Z,38.77
2023-05-02T09:26:17.527Z,38.65
2023-05-02T09:27:17.523Z,38.96
2023-05-02T09:28:17.532Z,38.80
2023-05-02T09:29:17.522Z,38.87
2023-05-02T09:30:17.522Z,38.91
2023-05-02T09:31:26.999Z,38.96
2023-05-02T09:32:18.550Z,39.01
2023-05-02T09:33:19.218Z,39.18
2023-05-02T09:34:17.601Z,38.86
2023-05-02T09:35:17.512Z,39.29
2023-05-02T09:36:17.507Z,38.95
2023-05-02T09:37:17.489Z,39.52
2023-05-02T09:38:17.782Z,39.79
2023-05-02T09:39:17.507Z,39.17
2023-05-02T09:40:17.465Z,39.49
2023-05-02T09:41:17.456Z,38.82
2023-05-02T09:42:17.459Z,39.20
2023-05-02T09:43:17.485Z,39.04
2023-05-02T09:44:17.436Z,39.01
2023-05-02T09:45:17.425Z,39.00
2023-05-02T09:46:17.479Z,39.36
2023-05-02T09:47:17.463Z,38.44
2023-05-02T09:48:17.441Z,38.56
2023-05-02T09:49:17.434Z,38.64
2023-05-02T09:50:17.389Z,38.43
2023-05-02T09:51:17.373Z,38.56
2023-05-02T09:52:17.402Z,38.22
2023-05-02T09:53:17.806Z,38.68
2023-05-02T09:54:17.450Z,38.48
2023-05-02T09:55:17.513Z,38.35
2023-05-02T09:56:18.587Z,38.55
2023-05-02T09:57:17.532Z,38.79
2023-05-02T09:58:17.863Z,38.71
2023-05-02T09:59:17.612Z,38.72
2023-05-02T10:00:17.733Z,38.69
2023-05-02T10:01:17.756Z,38.54
2023-05-02T10:02:17.776Z,38.64
2023-05-02T10:03:17.944Z,38.82
2023-05-02T10:04:17.937Z,38.79
2023-05-02T10:05:18.011Z,38.95
2023-05-02T10:06:18.032Z,38.59
2023-05-02T10:07:18.045Z,38.87
2023-05-02T10:08:18.290Z,38.90
2023-05-02T10:09:21.403Z,39.09
2023-05-02T10:10:18.209Z,38.62
2023-05-02T10:11:18.111Z,38.90
2023-05-02T10:12:18.123Z,39.05
2023-05-02T10:13:18.326Z,38.62
2023-05-02T10:14:18.102Z,39.11
2023-05-02T10:15:18.100Z,38.78
2023-05-02T10:16:18.120Z,38.84
2023-05-02T10:17:18.072Z,39.57
2023-05-02T10:18:18.139Z,39.41
2023-05-02T10:19:18.071Z,39.53
2023-05-02T10:20:18.062Z,39.13
2023-05-02T10:21:18.007Z,39.47
2023-05-02T10:22:18.017Z,39.79
2023-05-02T10:23:18.014Z,39.23
2023-05-02T10:24:18.036Z,39.38
2023-05-02T10:25:18.032Z,39.60
2023-05-02T10:26:18.016Z,39.07
2023-05-02T10:27:18.024Z,38.91
2023-05-02T10:28:18.007Z,39.04
2023-05-02T10:29:18.003Z,39.15
2023-05-02T10:30:18.000Z,39.12
2023-05-02T10:31:18.003Z,39.21
2023-05-02T10:32:17.963Z,39.06
2023-05-02T10:33:17.948Z,39.27
2023-05-02T10:34:17.948Z,39.29
2023-05-02T10:35:17.938Z,39.07
2023-05-02T10:36:17.934Z,39.11
2023-05-02T10:37:17.940Z,39.07
2023-05-02T10:38:18.023Z,38.81
2023-05-02T10:39:17.919Z,38.66
2023-05-02T10:40:17.960Z,38.85
2023-05-02T10:41:17.909Z,38.67
2023-05-02T10:42:17.899Z,38.89
2023-05-02T10:43:18.239Z,38.54
2023-05-02T10:44:17.988Z,38.84
2023-05-02T10:45:17.988Z,38.58
2023-05-02T10:46:18.156Z,38.60
2023-05-02T10:47:18.103Z,38.61
2023-05-02T10:48:18.189Z,38.55
2023-05-02T10:49:18.261Z,38.48
2023-05-02T10:50:18.297Z,38.71
2023-05-02T10:51:18.335Z,38.50
2023-05-02T10:52:18.423Z,38.49
2023-05-02T10:53:18.472Z,38.53
2023-05-02T10:54:18.535Z,38.42
2023-05-02T10:55:18.576Z,38.57
2023-05-02T10:56:18.612Z,38.39
2023-05-02T10:57:18.692Z,38.63
2023-05-02T10:58:18.826Z,38.44
2023-05-02T10:59:18.792Z,38.56
2023-05-02T11:00:18.841Z,38.50
2023-05-02T11:01:18.995Z,38.46
2023-05-02T11:02:19.011Z,38.41
2023-05-02T11:03:19.383Z,38.58
2023-05-02T11:04:19.090Z,38.60
2023-05-02T11:05:19.121Z,38.34
2023-05-02T11:06:19.154Z,38.37
2023-05-02T11:07:19.275Z,38.40
2023-05-02T11:08:21.230Z,38.33
2023-05-02T11:09:19.241Z,38.40
2023-05-02T11:10:19.317Z,38.32
2023-05-02T11:11:19.267Z,38.40
2023-05-02T11:12:19.276Z,38.36
2023-05-02T11:13:19.251Z,38.29
2023-05-02T11:14:20.296Z,38.18
2023-05-02T11:15:19.233Z,38.26
2023-05-02T11:16:19.306Z,38.36
2023-05-02T11:17:19.276Z,38.29
2023-05-02T11:18:19.340Z,38.27
2023-05-02T11:19:19.231Z,38.40
2023-05-02T11:20:19.231Z,38.21
2023-05-02T11:21:19.234Z,38.26
2023-05-02T11:22:19.269Z,38.27
2023-05-02T11:23:19.330Z,38.16
2023-05-02T11:24:19.203Z,38.35
2023-05-02T11:25:19.148Z,38.22
2023-05-02T11:26:19.195Z,38.14
2023-05-02T11:27:19.155Z,38.23
2023-05-02T11:28:19.221Z,38.24
2023-05-02T11:29:19.116Z,38.24
2023-05-02T11:30:19.137Z,38.21
2023-05-02T11:31:19.125Z,38.24
2023-05-02T11:32:19.170Z,38.43
2023-05-02T11:33:19.163Z,38.28
2023-05-02T11:34:19.873Z,38.25
2023-05-02T11:35:19.130Z,38.35
2023-05-02T11:36:19.201Z,38.31
2023-05-02T11:37:19.084Z,38.11
2023-05-02T11:38:19.411Z,38.19
2023-05-02T11:39:19.248Z,38.19
2023-05-02T11:40:19.252Z,38.19
2023-05-02T11:41:19.291Z,38.15
2023-05-02T11:42:19.353Z,38.15
2023-05-02T11:43:19.385Z,38.13
2023-05-02T11:44:19.433Z,38.16
2023-05-02T11:45:19.501Z,38.15
2023-05-02T11:46:19.593Z,38.10
2023-05-02T11:47:19.600Z,38.15
2023-05-02T11:48:19.621Z,38.13
2023-05-02T11:49:19.712Z,38.10
2023-05-02T11:50:19.769Z,38.07
2023-05-02T11:51:19.832Z,38.06
2023-05-02T11:52:19.880Z,38.10
2023-05-02T11:53:19.924Z,38.12
2023-05-02T11:54:19.971Z,38.08
2023-05-02T11:55:19.994Z,38.07
2023-05-02T11:56:20.034Z,38.07
2023-05-02T11:57:20.152Z,38.08
2023-05-02T11:58:20.189Z,38.07
2023-05-02T11:59:20.213Z,38.02
2023-05-02T12:00:20.306Z,38.08
2023-05-02T12:01:20.374Z,38.04
2023-05-02T12:02:20.430Z,38.04
2023-05-02T12:03:20.567Z,38.05
2023-05-02T12:04:20.500Z,38.01
2023-05-02T12:05:20.597Z,38.00
2023-05-02T12:06:20.860Z,38.02
2023-05-02T12:07:20.652Z,38.00
2023-05-02T12:08:20.732Z,38.04
2023-05-02T12:09:21.331Z,38.01
2023-05-02T12:10:20.845Z,38.00
2023-05-02T12:11:20.894Z,37.97
2023-05-02T12:12:20.986Z,37.96
2023-05-02T12:13:20.998Z,37.99
2023-05-02T12:14:21.059Z,37.93
2023-05-02T12:15:21.104Z,37.95
2023-05-02T12:16:21.227Z,37.88
2023-05-02T12:17:21.354Z,37.92
2023-05-02T12:18:22.144Z,37.92
2023-05-02T12:19:21.367Z,37.89
2023-05-02T12:20:21.457Z,37.92
2023-05-02T12:21:21.498Z,37.88
2023-05-02T12:22:21.546Z,37.88
2023-05-02T12:23:21.881Z,37.85
2023-05-02T12:24:21.652Z,37.87
2023-05-02T12:25:21.726Z,37.87
2023-05-02T12:26:22.018Z,37.84
2023-05-02T12:27:21.878Z,37.83
2023-05-02T12:28:21.889Z,37.84
2023-05-02T12:29:21.962Z,37.80
2023-05-02T12:30:21.999Z,37.84
2023-05-02T12:31:22.161Z,37.85
2023-05-02T12:32:22.207Z,37.84
2023-05-02T12:33:22.399Z,37.84
2023-05-02T12:34:22.251Z,37.78
2023-05-02T12:35:22.311Z,37.80
2023-05-02T12:36:22.367Z,37.79
2023-05-02T12:37:22.461Z,37.75
2023-05-02T12:38:22.499Z,37.80
2023-05-02T12:39:22.576Z,37.76
2023-05-02T12:40:22.623Z,37.77
2023-05-02T12:41:22.699Z,37.75
2023-05-02T12:42:22.741Z,37.73
2023-05-02T12:43:22.771Z,37.71
2023-05-02T12:44:22.842Z,37.74
2023-05-02T12:45:22.926Z,37.73
2023-05-02T12:46:22.995Z,37.66
2023-05-02T12:47:23.171Z,37.70
2023-05-02T12:48:23.101Z,37.71
2023-05-02T12:49:23.149Z,37.69
2023-05-02T12:50:23.206Z,37.68
2023-05-02T12:51:23.264Z,37.66
2023-05-02T12:52:23.306Z,37.69